sensor_id;sensor_type;location;lat;lon;timestamp;P1;durP1;ratioP1;P2;durP2;ratioP2
12412;SDS011;13877;18.896;-99.222;2023-03-08T00:02:14;22.08;;;6.93;;
12412;SDS011;13877;18.896;-99.222;2023-03-08T00:04:40;19.08;;;7.20;;
12412;SDS011;13877;18.896;-99.222;2023-03-08T00:07:08;21.92;;;7.32;;
12412;SDS011;13877;18.896;-99.222;2023-03-08T00:09:36;17.83;;;7.20;;
12412;SDS011;13877;18.896;-99.222;2023-03-08T00:12:03;20.10;;;7.80;;
12412;SDS011;13877;18.896;-99.222;2023-03-08T00:14:32;24.20;;;7.57;;
12412;SDS011;13877;18.896;-99.222;2023-03-08T00:16:59;14.70;;;7.53;;
12412;SDS011;13877;18.896;-99.222;2023-03-08T00:19:27;15.00;;;7.85;;
12412;SDS011;13877;18.896;-99.222;2023-03-08T00:21:54;19.98;;;6.57;;
12412;SDS011;13877;18.896;-99.222;2023-03-08T00:24:20;14.70;;;6.57;;
12412;SDS011;13877;18.896;-99.222;2023-03-08T00:26:48;27.60;;;8.00;;
12412;SDS011;13877;18.896;-99.222;2023-03-08T00:29:14;15.95;;;7.25;;
12412;SDS011;13877;18.896;-99.222;2023-03-08T00:31:42;18.73;;;7.30;;
12412;SDS011;13877;18.896;-99.222;2023-03-08T00:34:08;13.10;;;6.22;;
12412;SDS011;13877;18.896;-99.222;2023-03-08T00:36:39;17.63;;;7.63;;
12412;SDS011;13877;18.896;-99.222;2023-03-08T00:39:07;22.15;;;6.38;;
12412;SDS011;13877;18.896;-99.222;2023-03-08T00:41:36;12.65;;;6.70;;
12412;SDS011;13877;18.896;-99.222;2023-03-08T00:44:03;16.40;;;6.15;;
12412;SDS011;13877;18.896;-99.222;2023-03-08T00:46:30;21.40;;;7.20;;
12412;SDS011;13877;18.896;-99.222;2023-03-08T00:48:58;17.05;;;6.93;;
12412;SDS011;13877;18.896;-99.222;2023-03-08T00:51:25;17.38;;;6.78;;
12412;SDS011;13877;18.896;-99.222;2023-03-08T00:53:53;13.98;;;6.07;;
12412;SDS011;13877;18.896;-99.222;2023-03-08T00:56:20;15.35;;;7.03;;
12412;SDS011;13877;18.896;-99.222;2023-03-08T00:58:47;25.38;;;6.80;;
12412;SDS011;13877;18.896;-99.222;2023-03-08T01:01:15;15.07;;;6.80;;
12412;SDS011;13877;18.896;-99.222;2023-03-08T01:03:47;23.33;;;7.07;;
12412;SDS011;13877;18.896;-99.222;2023-03-08T01:06:14;19.33;;;6.32;;
12412;SDS011;13877;18.896;-99.222;2023-03-08T01:08:41;17.17;;;6.60;;
12412;SDS011;13877;18.896;-99.222;2023-03-08T01:11:16;18.95;;;6.75;;
12412;SDS011;13877;18.896;-99.222;2023-03-08T01:13:48;14.10;;;6.57;;
12412;SDS011;13877;18.896;-99.222;2023-03-08T01:16:21;21.00;;;6.30;;
12412;SDS011;13877;18.896;-99.222;2023-03-08T01:18:50;19.73;;;6.53;;
12412;SDS011;13877;18.896;-99.222;2023-03-08T01:21:18;22.60;;;7.15;;
12412;SDS011;13877;18.896;-99.222;2023-03-08T01:23:46;19.42;;;7.22;;
12412;SDS011;13877;18.896;-99.222;2023-03-08T01:26:14;18.98;;;7.90;;
12412;SDS011;13877;18.896;-99.222;2023-03-08T01:28:43;22.35;;;8.02;;
12412;SDS011;13877;18.896;-99.222;2023-03-08T01:31:12;25.80;;;7.00;;
12412;SDS011;13877;18.896;-99.222;2023-03-08T01:33:41;16.55;;;7.97;;
12412;SDS011;13877;18.896;-99.222;2023-03-08T01:36:10;20.70;;;8.07;;
12412;SDS011;13877;18.896;-99.222;2023-03-08T01:38:43;24.35;;;7.70;;
12412;SDS011;13877;18.896;-99.222;2023-03-08T01:41:16;19.05;;;8.50;;
12412;SDS011;13877;18.896;-99.222;2023-03-08T01:43:45;24.30;;;9.50;;
12412;SDS011;13877;18.896;-99.222;2023-03-08T01:46:25;30.25;;;10.70;;
12412;SDS011;13877;18.896;-99.222;2023-03-08T01:49:17;35.60;;;10.90;;
12412;SDS011;13877;18.896;-99.222;2023-03-08T01:54:46;40.63;;;13.48;;
12412;SDS011;13877;18.896;-99.222;2023-03-08T01:57:21;36.88;;;13.13;;
12412;SDS011;13877;18.896;-99.222;2023-03-08T01:59:54;40.10;;;13.68;;
12412;SDS011;13877;18.896;-99.222;2023-03-08T02:02:26;35.58;;;13.15;;
12412;SDS011;13877;18.896;-99.222;2023-03-08T02:05:02;37.33;;;12.88;;
12412;SDS011;13877;18.896;-99.222;2023-03-08T02:07:29;38.15;;;13.60;;
12412;SDS011;13877;18.896;-99.222;2023-03-08T02:09:57;34.55;;;11.45;;
12412;SDS011;13877;18.896;-99.222;2023-03-08T02:12:24;44.60;;;12.68;;
12412;SDS011;13877;18.896;-99.222;2023-03-08T02:14:51;31.60;;;12.00;;
12412;SDS011;13877;18.896;-99.222;2023-03-08T02:17:21;30.83;;;12.18;;
12412;SDS011;13877;18.896;-99.222;2023-03-08T02:19:55;27.08;;;11.80;;
12412;SDS011;13877;18.896;-99.222;2023-03-08T02:22:44;34.60;;;11.02;;
12412;SDS011;13877;18.896;-99.222;2023-03-08T02:28:03;45.67;;;13.00;;
12412;SDS011;13877;18.896;-99.222;2023-03-08T02:30:33;29.90;;;11.35;;
12412;SDS011;13877;18.896;-99.222;2023-03-08T02:35:29;40.28;;;14.35;;
12412;SDS011;13877;18.896;-99.222;2023-03-08T02:37:58;38.10;;;15.13;;
12412;SDS011;13877;18.896;-99.222;2023-03-08T02:40:25;43.92;;;14.63;;
12412;SDS011;13877;18.896;-99.222;2023-03-08T02:42:52;42.10;;;16.45;;
12412;SDS011;13877;18.896;-99.222;2023-03-08T02:45:21;40.47;;;17.35;;
12412;SDS011;13877;18.896;-99.222;2023-03-08T02:47:48;40.22;;;18.50;;
12412;SDS011;13877;18.896;-99.222;2023-03-08T02:50:16;52.88;;;18.85;;
12412;SDS011;13877;18.896;-99.222;2023-03-08T02:52:43;64.13;;;22.90;;
12412;SDS011;13877;18.896;-99.222;2023-03-08T02:55:10;57.10;;;23.88;;
12412;SDS011;13877;18.896;-99.222;2023-03-08T02:57:37;60.00;;;22.27;;
12412;SDS011;13877;18.896;-99.222;2023-03-08T03:00:04;59.15;;;23.85;;
12412;SDS011;13877;18.896;-99.222;2023-03-08T03:02:33;69.22;;;24.73;;
12412;SDS011;13877;18.896;-99.222;2023-03-08T03:05:03;59.28;;;25.08;;
12412;SDS011;13877;18.896;-99.222;2023-03-08T03:07:36;73.88;;;25.48;;
12412;SDS011;13877;18.896;-99.222;2023-03-08T03:10:05;55.42;;;25.25;;
12412;SDS011;13877;18.896;-99.222;2023-03-08T03:12:36;58.47;;;25.67;;
12412;SDS011;13877;18.896;-99.222;2023-03-08T03:15:08;79.85;;;26.75;;
12412;SDS011;13877;18.896;-99.222;2023-03-08T03:17:38;66.55;;;26.30;;
12412;SDS011;13877;18.896;-99.222;2023-03-08T03:20:06;72.60;;;26.27;;
12412;SDS011;13877;18.896;-99.222;2023-03-08T03:22:34;66.57;;;26.00;;
12412;SDS011;13877;18.896;-99.222;2023-03-08T03:25:04;64.50;;;26.48;;
12412;SDS011;13877;18.896;-99.222;2023-03-08T03:27:32;64.68;;;24.08;;
12412;SDS011;13877;18.896;-99.222;2023-03-08T03:29:59;62.60;;;24.88;;
12412;SDS011;13877;18.896;-99.222;2023-03-08T03:32:26;62.05;;;26.52;;
12412;SDS011;13877;18.896;-99.222;2023-03-08T03:34:53;72.80;;;26.33;;
12412;SDS011;13877;18.896;-99.222;2023-03-08T03:37:23;69.38;;;24.85;;
12412;SDS011;13877;18.896;-99.222;2023-03-08T03:39:49;61.38;;;24.00;;
12412;SDS011;13877;18.896;-99.222;2023-03-08T03:42:17;56.78;;;23.88;;
12412;SDS011;13877;18.896;-99.222;2023-03-08T03:44:54;64.55;;;25.50;;
12412;SDS011;13877;18.896;-99.222;2023-03-08T03:47:22;71.63;;;23.58;;
12412;SDS011;13877;18.896;-99.222;2023-03-08T03:49:54;64.95;;;22.40;;
12412;SDS011;13877;18.896;-99.222;2023-03-08T03:52:22;71.85;;;21.55;;
12412;SDS011;13877;18.896;-99.222;2023-03-08T03:54:57;57.90;;;19.33;;
12412;SDS011;13877;18.896;-99.222;2023-03-08T03:57:24;45.67;;;17.77;;
12412;SDS011;13877;18.896;-99.222;2023-03-08T03:59:51;53.78;;;18.08;;
12412;SDS011;13877;18.896;-99.222;2023-03-08T04:02:21;54.92;;;18.42;;
12412;SDS011;13877;18.896;-99.222;2023-03-08T04:04:53;54.90;;;18.13;;
12412;SDS011;13877;18.896;-99.222;2023-03-08T04:07:25;52.00;;;17.40;;
12412;SDS011;13877;18.896;-99.222;2023-03-08T04:09:59;48.92;;;15.70;;
12412;SDS011;13877;18.896;-99.222;2023-03-08T04:12:26;41.38;;;15.80;;
12412;SDS011;13877;18.896;-99.222;2023-03-08T04:14:54;43.40;;;15.02;;
12412;SDS011;13877;18.896;-99.222;2023-03-08T04:17:26;53.17;;;16.08;;
12412;SDS011;13877;18.896;-99.222;2023-03-08T04:19:58;36.92;;;13.27;;
12412;SDS011;13877;18.896;-99.222;2023-03-08T04:22:27;52.08;;;14.77;;
12412;SDS011;13877;18.896;-99.222;2023-03-08T04:25:02;53.25;;;18.33;;
12412;SDS011;13877;18.896;-99.222;2023-03-08T04:27:38;51.45;;;15.75;;
12412;SDS011;13877;18.896;-99.222;2023-03-08T04:30:06;44.85;;;16.83;;
12412;SDS011;13877;18.896;-99.222;2023-03-08T04:32:34;57.70;;;17.17;;
12412;SDS011;13877;18.896;-99.222;2023-03-08T04:35:01;58.03;;;17.02;;
12412;SDS011;13877;18.896;-99.222;2023-03-08T04:37:32;53.80;;;17.35;;
12412;SDS011;13877;18.896;-99.222;2023-03-08T04:40:06;52.50;;;17.05;;
12412;SDS011;13877;18.896;-99.222;2023-03-08T04:42:39;36.60;;;16.55;;
12412;SDS011;13877;18.896;-99.222;2023-03-08T04:45:10;47.47;;;18.58;;
12412;SDS011;13877;18.896;-99.222;2023-03-08T04:47:39;50.28;;;18.15;;
12412;SDS011;13877;18.896;-99.222;2023-03-08T04:50:06;57.28;;;17.50;;
12412;SDS011;13877;18.896;-99.222;2023-03-08T04:52:34;46.88;;;16.23;;
12412;SDS011;13877;18.896;-99.222;2023-03-08T04:55:03;47.67;;;17.15;;
12412;SDS011;13877;18.896;-99.222;2023-03-08T04:57:30;49.30;;;17.52;;
12412;SDS011;13877;18.896;-99.222;2023-03-08T05:00:00;42.38;;;16.60;;
12412;SDS011;13877;18.896;-99.222;2023-03-08T05:02:35;47.10;;;15.55;;
12412;SDS011;13877;18.896;-99.222;2023-03-08T05:05:04;46.90;;;14.93;;
12412;SDS011;13877;18.896;-99.222;2023-03-08T05:07:32;39.15;;;13.57;;
12412;SDS011;13877;18.896;-99.222;2023-03-08T05:10:02;37.35;;;14.68;;
12412;SDS011;13877;18.896;-99.222;2023-03-08T05:12:29;45.35;;;15.45;;
12412;SDS011;13877;18.896;-99.222;2023-03-08T05:14:59;45.45;;;13.90;;
12412;SDS011;13877;18.896;-99.222;2023-03-08T05:17:26;41.08;;;13.68;;
12412;SDS011;13877;18.896;-99.222;2023-03-08T05:19:55;39.47;;;12.40;;
12412;SDS011;13877;18.896;-99.222;2023-03-08T05:22:30;38.08;;;12.77;;
12412;SDS011;13877;18.896;-99.222;2023-03-08T05:24:57;45.92;;;12.70;;
12412;SDS011;13877;18.896;-99.222;2023-03-08T05:27:25;42.58;;;13.30;;
12412;SDS011;13877;18.896;-99.222;2023-03-08T05:29:52;32.05;;;12.02;;
12412;SDS011;13877;18.896;-99.222;2023-03-08T05:32:19;33.28;;;12.13;;
12412;SDS011;13877;18.896;-99.222;2023-03-08T05:34:48;30.00;;;12.27;;
12412;SDS011;13877;18.896;-99.222;2023-03-08T05:37:23;61.00;;;12.82;;
12412;SDS011;13877;18.896;-99.222;2023-03-08T05:39:51;30.60;;;11.80;;
12412;SDS011;13877;18.896;-99.222;2023-03-08T05:42:21;31.98;;;11.75;;
12412;SDS011;13877;18.896;-99.222;2023-03-08T05:44:48;29.33;;;12.57;;
12412;SDS011;13877;18.896;-99.222;2023-03-08T05:47:20;34.65;;;13.73;;
12412;SDS011;13877;18.896;-99.222;2023-03-08T05:49:47;34.72;;;12.52;;
12412;SDS011;13877;18.896;-99.222;2023-03-08T05:52:15;38.85;;;11.75;;
12412;SDS011;13877;18.896;-99.222;2023-03-08T05:54:43;38.42;;;12.32;;
12412;SDS011;13877;18.896;-99.222;2023-03-08T05:57:14;32.25;;;11.43;;
12412;SDS011;13877;18.896;-99.222;2023-03-08T05:59:41;34.78;;;12.02;;
12412;SDS011;13877;18.896;-99.222;2023-03-08T06:02:11;29.95;;;12.25;;
12412;SDS011;13877;18.896;-99.222;2023-03-08T06:04:43;47.97;;;13.30;;
12412;SDS011;13877;18.896;-99.222;2023-03-08T06:07:12;50.05;;;14.25;;
12412;SDS011;13877;18.896;-99.222;2023-03-08T06:09:44;38.40;;;14.20;;
12412;SDS011;13877;18.896;-99.222;2023-03-08T06:12:13;36.22;;;13.52;;
12412;SDS011;13877;18.896;-99.222;2023-03-08T06:14:42;43.72;;;13.55;;
12412;SDS011;13877;18.896;-99.222;2023-03-08T06:17:11;31.38;;;12.93;;
12412;SDS011;13877;18.896;-99.222;2023-03-08T06:19:42;41.53;;;12.23;;
12412;SDS011;13877;18.896;-99.222;2023-03-08T06:22:10;29.30;;;12.73;;
12412;SDS011;13877;18.896;-99.222;2023-03-08T06:24:38;34.45;;;12.27;;
12412;SDS011;13877;18.896;-99.222;2023-03-08T06:27:07;32.10;;;11.93;;
12412;SDS011;13877;18.896;-99.222;2023-03-08T06:29:35;39.13;;;10.82;;
12412;SDS011;13877;18.896;-99.222;2023-03-08T06:32:02;40.70;;;10.82;;
12412;SDS011;13877;18.896;-99.222;2023-03-08T06:34:31;30.92;;;10.15;;
12412;SDS011;13877;18.896;-99.222;2023-03-08T06:36:59;28.30;;;9.57;;
12412;SDS011;13877;18.896;-99.222;2023-03-08T06:39:26;31.95;;;10.52;;
12412;SDS011;13877;18.896;-99.222;2023-03-08T06:41:56;26.63;;;9.75;;
12412;SDS011;13877;18.896;-99.222;2023-03-08T06:44:23;24.52;;;10.43;;
12412;SDS011;13877;18.896;-99.222;2023-03-08T06:46:50;23.23;;;8.82;;
12412;SDS011;13877;18.896;-99.222;2023-03-08T06:49:17;34.53;;;10.05;;
12412;SDS011;13877;18.896;-99.222;2023-03-08T06:51:44;23.48;;;9.32;;
12412;SDS011;13877;18.896;-99.222;2023-03-08T06:54:11;25.00;;;8.82;;
12412;SDS011;13877;18.896;-99.222;2023-03-08T06:56:44;18.75;;;8.85;;
12412;SDS011;13877;18.896;-99.222;2023-03-08T06:59:12;26.95;;;9.10;;
12412;SDS011;13877;18.896;-99.222;2023-03-08T07:01:40;31.15;;;9.15;;
12412;SDS011;13877;18.896;-99.222;2023-03-08T07:04:07;28.17;;;9.23;;
12412;SDS011;13877;18.896;-99.222;2023-03-08T07:06:34;31.25;;;9.30;;
12412;SDS011;13877;18.896;-99.222;2023-03-08T07:09:02;24.95;;;9.55;;
12412;SDS011;13877;18.896;-99.222;2023-03-08T07:11:30;28.85;;;8.88;;
12412;SDS011;13877;18.896;-99.222;2023-03-08T07:13:58;30.45;;;9.20;;
12412;SDS011;13877;18.896;-99.222;2023-03-08T07:16:25;34.13;;;8.90;;
12412;SDS011;13877;18.896;-99.222;2023-03-08T07:18:52;18.40;;;8.60;;
12412;SDS011;13877;18.896;-99.222;2023-03-08T07:21:19;22.88;;;9.90;;
12412;SDS011;13877;18.896;-99.222;2023-03-08T07:23:46;30.23;;;8.48;;
12412;SDS011;13877;18.896;-99.222;2023-03-08T07:26:15;24.85;;;8.57;;
12412;SDS011;13877;18.896;-99.222;2023-03-08T07:28:42;26.13;;;7.95;;
12412;SDS011;13877;18.896;-99.222;2023-03-08T07:31:10;25.00;;;8.93;;
12412;SDS011;13877;18.896;-99.222;2023-03-08T07:33:37;23.48;;;9.10;;
12412;SDS011;13877;18.896;-99.222;2023-03-08T07:36:05;26.58;;;8.98;;
12412;SDS011;13877;18.896;-99.222;2023-03-08T07:38:32;32.00;;;9.07;;
12412;SDS011;13877;18.896;-99.222;2023-03-08T07:40:59;26.85;;;8.90;;
12412;SDS011;13877;18.896;-99.222;2023-03-08T07:43:25;30.55;;;8.55;;
12412;SDS011;13877;18.896;-99.222;2023-03-08T07:45:58;19.10;;;9.07;;
12412;SDS011;13877;18.896;-99.222;2023-03-08T07:48:27;25.63;;;8.63;;
12412;SDS011;13877;18.896;-99.222;2023-03-08T07:50:58;21.60;;;8.75;;
12412;SDS011;13877;18.896;-99.222;2023-03-08T07:53:32;26.95;;;9.10;;
12412;SDS011;13877;18.896;-99.222;2023-03-08T07:55:59;19.83;;;7.95;;
12412;SDS011;13877;18.896;-99.222;2023-03-08T07:58:26;23.50;;;9.02;;
12412;SDS011;13877;18.896;-99.222;2023-03-08T08:00:55;27.58;;;9.70;;
12412;SDS011;13877;18.896;-99.222;2023-03-08T08:03:23;35.55;;;9.38;;
12412;SDS011;13877;18.896;-99.222;2023-03-08T08:05:50;26.92;;;8.88;;
12412;SDS011;13877;18.896;-99.222;2023-03-08T08:08:17;31.67;;;9.85;;
12412;SDS011;13877;18.896;-99.222;2023-03-08T08:10:44;29.88;;;10.88;;
12412;SDS011;13877;18.896;-99.222;2023-03-08T08:13:11;24.73;;;9.57;;
12412;SDS011;13877;18.896;-99.222;2023-03-08T08:15:37;23.13;;;8.90;;
12412;SDS011;13877;18.896;-99.222;2023-03-08T08:18:04;25.00;;;9.20;;
12412;SDS011;13877;18.896;-99.222;2023-03-08T08:20:31;19.08;;;9.75;;
12412;SDS011;13877;18.896;-99.222;2023-03-08T08:22:58;23.55;;;8.30;;
12412;SDS011;13877;18.896;-99.222;2023-03-08T08:25:25;22.92;;;9.43;;
12412;SDS011;13877;18.896;-99.222;2023-03-08T08:27:52;32.22;;;9.88;;
12412;SDS011;13877;18.896;-99.222;2023-03-08T08:30:19;32.08;;;9.63;;
12412;SDS011;13877;18.896;-99.222;2023-03-08T08:32:46;30.27;;;10.88;;
12412;SDS011;13877;18.896;-99.222;2023-03-08T08:35:13;29.85;;;10.13;;
12412;SDS011;13877;18.896;-99.222;2023-03-08T08:37:41;34.17;;;10.10;;
12412;SDS011;13877;18.896;-99.222;2023-03-08T08:40:08;26.77;;;10.90;;
12412;SDS011;13877;18.896;-99.222;2023-03-08T08:42:36;29.63;;;10.60;;
12412;SDS011;13877;18.896;-99.222;2023-03-08T08:45:03;27.20;;;10.40;;
12412;SDS011;13877;18.896;-99.222;2023-03-08T08:47:31;35.25;;;10.70;;
12412;SDS011;13877;18.896;-99.222;2023-03-08T08:49:57;34.40;;;10.07;;
12412;SDS011;13877;18.896;-99.222;2023-03-08T08:52:24;34.38;;;10.50;;
12412;SDS011;13877;18.896;-99.222;2023-03-08T08:54:51;40.58;;;10.75;;
12412;SDS011;13877;18.896;-99.222;2023-03-08T08:57:19;29.10;;;9.32;;
12412;SDS011;13877;18.896;-99.222;2023-03-08T08:59:45;30.98;;;10.45;;
12412;SDS011;13877;18.896;-99.222;2023-03-08T09:02:13;26.17;;;9.73;;
12412;SDS011;13877;18.896;-99.222;2023-03-08T09:04:43;37.42;;;10.27;;
12412;SDS011;13877;18.896;-99.222;2023-03-08T09:07:10;31.27;;;11.25;;
12412;SDS011;13877;18.896;-99.222;2023-03-08T09:09:37;35.22;;;9.63;;
12412;SDS011;13877;18.896;-99.222;2023-03-08T09:12:04;34.75;;;9.23;;
12412;SDS011;13877;18.896;-99.222;2023-03-08T09:14:32;28.02;;;9.60;;
12412;SDS011;13877;18.896;-99.222;2023-03-08T09:17:00;35.55;;;10.63;;
12412;SDS011;13877;18.896;-99.222;2023-03-08T09:19:27;30.92;;;10.50;;
12412;SDS011;13877;18.896;-99.222;2023-03-08T09:21:54;31.40;;;10.68;;
12412;SDS011;13877;18.896;-99.222;2023-03-08T09:24:20;27.35;;;10.20;;
12412;SDS011;13877;18.896;-99.222;2023-03-08T09:26:47;27.73;;;10.35;;
12412;SDS011;13877;18.896;-99.222;2023-03-08T09:29:14;35.75;;;10.63;;
12412;SDS011;13877;18.896;-99.222;2023-03-08T09:31:41;34.25;;;9.88;;
12412;SDS011;13877;18.896;-99.222;2023-03-08T09:34:11;32.40;;;9.57;;
12412;SDS011;13877;18.896;-99.222;2023-03-08T09:36:40;33.70;;;11.25;;
12412;SDS011;13877;18.896;-99.222;2023-03-08T09:39:08;37.13;;;9.80;;
12412;SDS011;13877;18.896;-99.222;2023-03-08T09:41:42;27.50;;;10.20;;
12412;SDS011;13877;18.896;-99.222;2023-03-08T09:49:54;35.78;;;10.05;;
12412;SDS011;13877;18.896;-99.222;2023-03-08T09:55:08;25.48;;;9.45;;
12412;SDS011;13877;18.896;-99.222;2023-03-08T09:57:44;24.75;;;8.93;;
12412;SDS011;13877;18.896;-99.222;2023-03-08T10:00:22;30.75;;;10.38;;
12412;SDS011;13877;18.896;-99.222;2023-03-08T10:14:11;35.20;;;13.18;;
12412;SDS011;13877;18.896;-99.222;2023-03-08T10:16:47;43.55;;;13.93;;
12412;SDS011;13877;18.896;-99.222;2023-03-08T10:21:49;35.22;;;12.18;;
12412;SDS011;13877;18.896;-99.222;2023-03-08T10:27:36;45.03;;;12.50;;
12412;SDS011;13877;18.896;-99.222;2023-03-08T10:30:10;41.55;;;12.43;;
12412;SDS011;13877;18.896;-99.222;2023-03-08T10:32:48;42.03;;;12.45;;
12412;SDS011;13877;18.896;-99.222;2023-03-08T10:35:17;39.15;;;12.80;;
12412;SDS011;13877;18.896;-99.222;2023-03-08T10:37:55;36.72;;;12.40;;
12412;SDS011;13877;18.896;-99.222;2023-03-08T10:40:21;31.70;;;11.23;;
12412;SDS011;13877;18.896;-99.222;2023-03-08T10:42:50;34.67;;;11.57;;
12412;SDS011;13877;18.896;-99.222;2023-03-08T10:45:22;32.92;;;10.30;;
12412;SDS011;13877;18.896;-99.222;2023-03-08T10:50:32;43.70;;;10.13;;
12412;SDS011;13877;18.896;-99.222;2023-03-08T10:53:17;34.45;;;10.02;;
12412;SDS011;13877;18.896;-99.222;2023-03-08T10:55:46;23.67;;;9.80;;
12412;SDS011;13877;18.896;-99.222;2023-03-08T11:01:02;25.60;;;8.98;;
12412;SDS011;13877;18.896;-99.222;2023-03-08T11:04:00;28.02;;;9.20;;
12412;SDS011;13877;18.896;-99.222;2023-03-08T11:06:28;33.15;;;9.73;;
12412;SDS011;13877;18.896;-99.222;2023-03-08T11:08:56;23.13;;;9.25;;
12412;SDS011;13877;18.896;-99.222;2023-03-08T11:11:25;21.63;;;8.13;;
12412;SDS011;13877;18.896;-99.222;2023-03-08T11:13:52;24.20;;;8.65;;
12412;SDS011;13877;18.896;-99.222;2023-03-08T11:22:03;15.80;;;7.68;;
12412;SDS011;13877;18.896;-99.222;2023-03-08T11:44:35;16.05;;;7.55;;
12412;SDS011;13877;18.896;-99.222;2023-03-08T11:55:43;30.02;;;8.40;;
12412;SDS011;13877;18.896;-99.222;2023-03-08T11:58:46;19.50;;;8.43;;
12412;SDS011;13877;18.896;-99.222;2023-03-08T12:01:25;21.15;;;8.38;;
12412;SDS011;13877;18.896;-99.222;2023-03-08T12:04:26;21.73;;;7.95;;
12412;SDS011;13877;18.896;-99.222;2023-03-08T12:06:59;22.42;;;8.60;;
12412;SDS011;13877;18.896;-99.222;2023-03-08T12:09:33;29.20;;;7.97;;
12412;SDS011;13877;18.896;-99.222;2023-03-08T12:12:08;32.78;;;8.60;;
12412;SDS011;13877;18.896;-99.222;2023-03-08T12:14:47;29.23;;;9.25;;
12412;SDS011;13877;18.896;-99.222;2023-03-08T12:17:39;24.73;;;7.60;;
12412;SDS011;13877;18.896;-99.222;2023-03-08T12:20:15;26.90;;;8.40;;
12412;SDS011;13877;18.896;-99.222;2023-03-08T12:23:21;22.30;;;7.60;;
12412;SDS011;13877;18.896;-99.222;2023-03-08T12:25:46;22.42;;;8.18;;
12412;SDS011;13877;18.896;-99.222;2023-03-08T12:28:28;31.75;;;9.13;;
12412;SDS011;13877;18.896;-99.222;2023-03-08T12:33:47;23.98;;;8.82;;
12412;SDS011;13877;18.896;-99.222;2023-03-08T12:36:14;20.98;;;8.32;;
12412;SDS011;13877;18.896;-99.222;2023-03-08T12:38:43;27.08;;;8.27;;
12412;SDS011;13877;18.896;-99.222;2023-03-08T12:41:25;23.85;;;8.95;;
12412;SDS011;13877;18.896;-99.222;2023-03-08T12:44:21;31.92;;;9.05;;
12412;SDS011;13877;18.896;-99.222;2023-03-08T12:46:58;25.70;;;9.27;;
12412;SDS011;13877;18.896;-99.222;2023-03-08T12:49:46;22.85;;;8.90;;
12412;SDS011;13877;18.896;-99.222;2023-03-08T12:55:05;21.23;;;10.30;;
12412;SDS011;13877;18.896;-99.222;2023-03-08T12:57:53;31.25;;;9.90;;
12412;SDS011;13877;18.896;-99.222;2023-03-08T13:00:23;27.77;;;9.98;;
12412;SDS011;13877;18.896;-99.222;2023-03-08T13:05:40;26.80;;;10.63;;
12412;SDS011;13877;18.896;-99.222;2023-03-08T13:16:33;35.13;;;10.30;;
12412;SDS011;13877;18.896;-99.222;2023-03-08T13:21:39;28.33;;;10.35;;
12412;SDS011;13877;18.896;-99.222;2023-03-08T13:24:32;23.73;;;9.00;;
12412;SDS011;13877;18.896;-99.222;2023-03-08T13:29:58;22.92;;;8.80;;
12412;SDS011;13877;18.896;-99.222;2023-03-08T13:32:42;41.20;;;9.40;;
12412;SDS011;13877;18.896;-99.222;2023-03-08T13:35:13;39.17;;;9.05;;
12412;SDS011;13877;18.896;-99.222;2023-03-08T13:37:50;29.25;;;8.38;;
12412;SDS011;13877;18.896;-99.222;2023-03-08T13:40:19;27.88;;;8.90;;
12412;SDS011;13877;18.896;-99.222;2023-03-08T13:45:39;28.33;;;8.60;;
12412;SDS011;13877;18.896;-99.222;2023-03-08T13:48:11;19.20;;;8.50;;
12412;SDS011;13877;18.896;-99.222;2023-03-08T13:50:43;43.97;;;9.80;;
12412;SDS011;13877;18.896;-99.222;2023-03-08T13:53:13;49.38;;;10.40;;
12412;SDS011;13877;18.896;-99.222;2023-03-08T13:55:51;45.20;;;9.85;;
12412;SDS011;13877;18.896;-99.222;2023-03-08T14:01:10;40.85;;;10.32;;
12412;SDS011;13877;18.896;-99.222;2023-03-08T14:03:41;40.92;;;9.13;;
12412;SDS011;13877;18.896;-99.222;2023-03-08T14:06:16;30.05;;;9.40;;
12412;SDS011;13877;18.896;-99.222;2023-03-08T14:08:48;40.83;;;9.98;;
12412;SDS011;13877;18.896;-99.222;2023-03-08T14:11:21;30.35;;;9.38;;
12412;SDS011;13877;18.896;-99.222;2023-03-08T14:14:13;31.98;;;9.98;;
12412;SDS011;13877;18.896;-99.222;2023-03-08T14:16:47;25.90;;;9.65;;
12412;SDS011;13877;18.896;-99.222;2023-03-08T14:22:12;28.02;;;9.40;;
12412;SDS011;13877;18.896;-99.222;2023-03-08T14:24:47;26.17;;;9.48;;
12412;SDS011;13877;18.896;-99.222;2023-03-08T14:30:01;44.53;;;9.35;;
12412;SDS011;13877;18.896;-99.222;2023-03-08T14:32:35;30.08;;;9.13;;
12412;SDS011;13877;18.896;-99.222;2023-03-08T14:35:05;23.23;;;7.85;;
12412;SDS011;13877;18.896;-99.222;2023-03-08T14:37:42;16.33;;;7.65;;
12412;SDS011;13877;18.896;-99.222;2023-03-08T14:40:25;13.30;;;6.00;;
12412;SDS011;13877;18.896;-99.222;2023-03-08T14:43:14;19.63;;;6.78;;
12412;SDS011;13877;18.896;-99.222;2023-03-08T14:48:32;30.98;;;9.00;;
12412;SDS011;13877;18.896;-99.222;2023-03-08T14:51:01;18.20;;;6.93;;
12412;SDS011;13877;18.896;-99.222;2023-03-08T14:53:59;20.23;;;7.55;;
12412;SDS011;13877;18.896;-99.222;2023-03-08T14:56:31;21.73;;;9.60;;
12412;SDS011;13877;18.896;-99.222;2023-03-08T14:59:01;26.85;;;10.63;;
12412;SDS011;13877;18.896;-99.222;2023-03-08T15:01:31;24.52;;;9.60;;
12412;SDS011;13877;18.896;-99.222;2023-03-08T15:04:01;27.02;;;9.75;;
12412;SDS011;13877;18.896;-99.222;2023-03-08T15:06:32;22.38;;;9.23;;
12412;SDS011;13877;18.896;-99.222;2023-03-08T15:09:02;32.00;;;11.63;;
12412;SDS011;13877;18.896;-99.222;2023-03-08T15:11:32;16.00;;;9.27;;
12412;SDS011;13877;18.896;-99.222;2023-03-08T15:13:59;23.88;;;9.00;;
12412;SDS011;13877;18.896;-99.222;2023-03-08T15:16:32;19.70;;;7.93;;
12412;SDS011;13877;18.896;-99.222;2023-03-08T15:19:01;21.52;;;9.43;;
12412;SDS011;13877;18.896;-99.222;2023-03-08T15:21:31;17.50;;;9.18;;
12412;SDS011;13877;18.896;-99.222;2023-03-08T15:24:00;24.67;;;10.18;;
12412;SDS011;13877;18.896;-99.222;2023-03-08T15:26:28;23.80;;;11.05;;
12412;SDS011;13877;18.896;-99.222;2023-03-08T15:28:58;22.15;;;9.85;;
12412;SDS011;13877;18.896;-99.222;2023-03-08T15:31:31;24.60;;;10.98;;
12412;SDS011;13877;18.896;-99.222;2023-03-08T15:33:58;30.00;;;11.15;;
12412;SDS011;13877;18.896;-99.222;2023-03-08T15:36:29;21.60;;;11.00;;
12412;SDS011;13877;18.896;-99.222;2023-03-08T15:38:59;27.20;;;11.77;;
12412;SDS011;13877;18.896;-99.222;2023-03-08T15:41:29;33.28;;;11.30;;
12412;SDS011;13877;18.896;-99.222;2023-03-08T15:43:56;25.75;;;11.93;;
12412;SDS011;13877;18.896;-99.222;2023-03-08T15:46:25;39.60;;;12.20;;
12412;SDS011;13877;18.896;-99.222;2023-03-08T15:48:53;27.95;;;12.27;;
12412;SDS011;13877;18.896;-99.222;2023-03-08T15:51:20;32.78;;;11.85;;
12412;SDS011;13877;18.896;-99.222;2023-03-08T15:53:51;36.88;;;13.07;;
12412;SDS011;13877;18.896;-99.222;2023-03-08T15:56:17;29.13;;;11.10;;
12412;SDS011;13877;18.896;-99.222;2023-03-08T15:58:46;32.60;;;11.70;;
12412;SDS011;13877;18.896;-99.222;2023-03-08T16:01:14;27.17;;;11.20;;
12412;SDS011;13877;18.896;-99.222;2023-03-08T16:03:41;29.90;;;10.48;;
12412;SDS011;13877;18.896;-99.222;2023-03-08T16:06:09;26.95;;;9.77;;
12412;SDS011;13877;18.896;-99.222;2023-03-08T16:08:38;31.55;;;10.38;;
12412;SDS011;13877;18.896;-99.222;2023-03-08T16:11:07;30.92;;;10.07;;
12412;SDS011;13877;18.896;-99.222;2023-03-08T16:13:36;23.02;;;9.73;;